createdAt,value
2018-09-24T00:01:42.422Z,51.97
2018-09-24T00:04:08.412Z,51.95
2018-09-24T00:06:34.429Z,51.99
2018-09-24T00:09:00.380Z,51.96
2018-09-24T00:11:26.431Z,51.95
2018-09-24T00:13:52.439Z,51.91
2018-09-24T00:16:18.444Z,51.88
2018-09-24T00:18:44.453Z,51.84
2018-09-24T00:21:10.472Z,51.85
2018-09-24T00:23:36.456Z,51.86
2018-09-24T00:26:02.468Z,51.87
2018-09-24T00:28:28.444Z,51.88
2018-09-24T00:30:54.492Z,51.92
2018-09-24T00:33:20.502Z,51.92
2018-09-24T00:35:46.522Z,51.94
2018-09-24T00:38:12.530Z,51.88
2018-09-24T00:40:38.515Z,51.85
2018-09-24T00:43:04.610Z,51.85
2018-09-24T00:45:30.550Z,51.87
2018-09-24T00:47:56.532Z,51.87
2018-09-24T00:50:22.519Z,51.86
2018-09-24T00:52:48.500Z,51.83
2018-09-24T00:55:14.483Z,51.80
2018-09-24T00:57:40.493Z,51.79
2018-09-24T01:00:06.480Z,51.73
2018-09-24T01:02:32.468Z,51.70
2018-09-24T01:04:58.473Z,51.70
2018-09-24T01:07:24.501Z,51.70
2018-09-24T01:09:50.493Z,51.70
2018-09-24T01:12:16.542Z,51.67
2018-09-24T01:14:42.519Z,51.61
2018-09-24T01:17:08.534Z,51.62
2018-09-24T01:19:34.518Z,51.62
2018-09-24T01:22:00.530Z,51.63
2018-09-24T01:24:26.538Z,51.62
2018-09-24T01:26:52.525Z,51.59
2018-09-24T01:29:18.557Z,51.54
2018-09-24T01:31:44.571Z,51.52
2018-09-24T01:34:10.578Z,51.52
2018-09-24T01:36:36.584Z,51.54
2018-09-24T01:39:02.635Z,51.52
2018-09-24T01:41:28.659Z,51.51
2018-09-24T01:43:54.644Z,51.49
2018-09-24T01:46:20.669Z,51.48
2018-09-24T01:48:46.675Z,51.44
2018-09-24T01:51:12.687Z,51.41
2018-09-24T01:53:38.705Z,51.42
2018-09-24T01:56:04.687Z,51.42
2018-09-24T01:58:30.705Z,51.42
2018-09-24T02:00:56.688Z,51.37
2018-09-24T02:03:22.670Z,51.39
2018-09-24T02:05:48.676Z,51.34
2018-09-24T02:08:14.665Z,51.33
2018-09-24T02:10:40.668Z,51.32
2018-09-24T02:13:06.658Z,51.32
2018-09-24T02:15:32.681Z,51.31
2018-09-24T02:17:58.659Z,51.30
2018-09-24T02:20:24.668Z,51.26
2018-09-24T02:22:50.677Z,51.26
2018-09-24T02:25:16.656Z,51.26
2018-09-24T02:27:42.691Z,51.24
2018-09-24T02:30:08.742Z,51.24
2018-09-24T02:32:34.728Z,51.23
2018-09-24T02:35:00.739Z,51.20
2018-09-24T02:37:26.769Z,51.18
2018-09-24T02:39:52.746Z,51.18
2018-09-24T02:42:18.772Z,51.12
2018-09-24T02:44:44.756Z,51.13
2018-09-24T02:47:10.763Z,51.13
2018-09-24T02:49:36.777Z,51.13
2018-09-24T02:52:02.772Z,51.12
2018-09-24T02:54:28.759Z,51.06
2018-09-24T02:56:54.778Z,51.06
2018-09-24T02:59:20.760Z,51.05
2018-09-24T03:01:46.764Z,51.04
2018-09-24T03:04:12.747Z,51.03
2018-09-24T03:06:38.778Z,51.02
2018-09-24T03:09:04.768Z,51.04
2018-09-24T03:11:30.752Z,50.96
2018-09-24T03:13:56.742Z,50.97
2018-09-24T03:16:22.748Z,50.96
2018-09-24T03:18:48.739Z,50.95
2018-09-24T03:21:14.726Z,50.94
2018-09-24T03:23:40.742Z,50.93
2018-09-24T03:26:06.743Z,50.90
2018-09-24T03:28:32.706Z,50.92
2018-09-24T03:30:58.734Z,50.89
2018-09-24T03:33:24.745Z,50.87
2018-09-24T03:35:50.775Z,50.86
2018-09-24T03:38:16.756Z,50.87
2018-09-24T03:40:42.752Z,50.86
2018-09-24T03:43:08.750Z,50.83
2018-09-24T03:45:34.761Z,50.84
2018-09-24T03:48:00.800Z,50.81
2018-09-24T03:50:26.784Z,50.80
2018-09-24T03:52:52.773Z,50.78
2018-09-24T03:55:18.786Z,50.81
2018-09-24T03:57:44.777Z,50.79
2018-09-24T04:00:10.795Z,50.79
2018-09-24T04:02:36.809Z,50.76
2018-09-24T04:05:02.812Z,50.72
2018-09-24T04:07:28.810Z,50.73
2018-09-24T04:09:54.848Z,50.77
2018-09-24T04:12:20.842Z,50.82
2018-09-24T04:14:46.845Z,50.83
2018-09-24T04:17:12.862Z,50.81
2018-09-24T04:19:38.993Z,50.80
2018-09-24T04:22:04.900Z,50.83
2018-09-24T04:24:30.910Z,50.86
2018-09-24T04:26:56.883Z,50.82
2018-09-24T04:29:22.865Z,50.76
2018-09-24T04:31:48.848Z,50.88
2018-09-24T04:34:14.835Z,50.88
2018-09-24T04:36:40.846Z,50.96
2018-09-24T04:39:06.858Z,50.88
2018-09-24T04:41:32.870Z,50.87
2018-09-24T04:43:58.905Z,50.92
2018-09-24T04:46:24.885Z,51.07
2018-09-24T04:48:50.895Z,51.11
2018-09-24T04:51:16.906Z,51.24
2018-09-24T04:53:42.890Z,51.29
2018-09-24T04:56:08.886Z,51.40
2018-09-24T04:58:34.952Z,51.41
2018-09-24T05:01:00.909Z,51.42
2018-09-24T05:03:26.913Z,51.41
2018-09-24T05:05:52.922Z,51.46
2018-09-24T05:08:18.911Z,51.46
2018-09-24T05:10:44.917Z,51.48
2018-09-24T05:13:10.967Z,51.46
2018-09-24T05:15:36.982Z,51.47
2018-09-24T05:18:02.977Z,51.43
2018-09-24T05:20:28.965Z,51.42
2018-09-24T05:22:54.959Z,51.45
2018-09-24T05:25:20.949Z,51.43
2018-09-24T05:27:46.928Z,51.43
2018-09-24T05:30:13.102Z,51.40
2018-09-24T05:32:39.106Z,51.39
2018-09-24T05:35:05.114Z,51.41
2018-09-24T05:37:33.212Z,51.38
2018-09-24T05:39:59.210Z,51.39
2018-09-24T05:42:25.196Z,51.40
2018-09-24T05:44:51.201Z,51.45
2018-09-24T05:47:17.228Z,51.48
2018-09-24T05:49:43.363Z,51.44
2018-09-24T05:52:09.367Z,51.57
2018-09-24T05:54:35.374Z,51.63
2018-09-24T05:57:01.421Z,51.66
2018-09-24T05:59:27.478Z,51.66
2018-09-24T06:01:53.486Z,51.82
2018-09-24T06:04:19.502Z,51.98
2018-09-24T06:06:45.489Z,51.83
2018-09-24T06:09:11.472Z,51.89
2018-09-24T06:11:37.934Z,51.86
2018-09-24T06:14:04.570Z,52.12
2018-09-24T06:16:31.068Z,52.07
2018-09-24T06:18:57.113Z,52.05
2018-09-24T06:21:24.822Z,52.02
2018-09-24T06:23:56.321Z,52.09
2018-09-24T06:26:22.348Z,52.03
2018-09-24T06:28:48.325Z,52.05
2018-09-24T06:31:14.340Z,52.15
2018-09-24T06:33:40.389Z,52.04
2018-09-24T06:36:06.393Z,52.12
2018-09-24T06:38:32.385Z,52.14
2018-09-24T06:40:58.395Z,52.11
2018-09-24T06:43:24.442Z,52.17
2018-09-24T06:45:50.456Z,52.12
2018-09-24T06:48:16.468Z,52.05
2018-09-24T06:50:42.457Z,52.15
2018-09-24T06:53:08.471Z,52.06
2018-09-24T06:55:34.485Z,52.02
2018-09-24T06:58:00.498Z,51.95
2018-09-24T07:00:26.507Z,51.88
2018-09-24T07:02:52.513Z,51.88
2018-09-24T07:05:18.518Z,51.88
2018-09-24T07:07:44.520Z,51.80
2018-09-24T07:10:10.506Z,51.87
2018-09-24T07:12:36.492Z,51.93
2018-09-24T07:15:02.514Z,51.94
2018-09-24T07:17:28.556Z,51.94
2018-09-24T07:19:54.568Z,51.96
2018-09-24T07:22:20.618Z,51.97
2018-09-24T07:24:46.621Z,51.93
2018-09-24T07:27:12.624Z,51.80
2018-09-24T07:29:38.630Z,51.85
2018-09-24T07:32:04.649Z,51.81
2018-09-24T07:34:30.638Z,51.78
2018-09-24T07:36:56.624Z,51.90
2018-09-24T07:39:22.675Z,51.98
2018-09-24T07:41:48.691Z,52.01
2018-09-24T07:44:14.698Z,52.13
2018-09-24T07:46:40.733Z,52.12
2018-09-24T07:49:06.720Z,52.11
2018-09-24T07:51:32.707Z,51.98
2018-09-24T07:53:58.766Z,51.91
2018-09-24T07:56:24.776Z,51.88
2018-09-24T07:58:50.786Z,51.85
2018-09-24T08:01:16.846Z,51.80
2018-09-24T08:03:42.837Z,51.67
2018-09-24T08:06:08.842Z,51.70
2018-09-24T08:08:34.902Z,51.78
2018-09-24T08:11:00.951Z,51.76
2018-09-24T08:13:26.926Z,51.79
2018-09-24T08:15:52.927Z,51.80
2018-09-24T08:18:18.896Z,51.75
2018-09-24T08:20:44.905Z,51.69
2018-09-24T08:23:10.897Z,51.69
2018-09-24T08:25:36.961Z,51.66
2018-09-24T08:28:02.965Z,51.69
2018-09-24T08:30:28.980Z,51.74
2018-09-24T08:32:54.964Z,51.71
2018-09-24T08:35:20.973Z,51.66
2018-09-24T08:37:46.967Z,51.56
2018-09-24T08:40:12.976Z,51.45
2018-09-24T08:42:38.999Z,51.68
2018-09-24T08:45:05.001Z,51.72
2018-09-24T08:47:31.016Z,51.71
2018-09-24T08:49:56.992Z,51.75
2018-09-24T08:52:23.018Z,51.76
2018-09-24T08:54:49.060Z,51.72
2018-09-24T08:57:15.170Z,51.67
2018-09-24T08:59:41.082Z,51.75
2018-09-24T09:02:07.067Z,51.75
2018-09-24T09:04:33.058Z,51.77
2018-09-24T09:06:59.072Z,51.72
2018-09-24T09:09:25.064Z,51.67
2018-09-24T09:11:51.126Z,51.95
2018-09-24T09:14:17.183Z,52.00
2018-09-24T09:16:43.212Z,51.70
2018-09-24T09:19:09.229Z,51.79
2018-09-24T09:21:35.237Z,51.91
2018-09-24T09:24:01.334Z,51.86
2018-09-24T09:26:27.285Z,51.49
2018-09-24T09:28:53.294Z,51.31
2018-09-24T09:31:19.293Z,50.96
2018-09-24T09:33:45.384Z,51.06
2018-09-24T09:36:11.418Z,50.99
2018-09-24T09:38:37.426Z,50.86
2018-09-24T09:41:03.610Z,51.07
2018-09-24T09:43:29.607Z,51.22
2018-09-24T09:45:55.606Z,51.43
2018-09-24T09:48:21.617Z,51.63
2018-09-24T09:50:47.668Z,51.55
2018-09-24T09:53:13.673Z,51.45
2018-09-24T09:55:39.676Z,51.50
2018-09-24T09:58:05.685Z,51.48
2018-09-24T10:00:31.704Z,51.46
2018-09-24T10:02:57.732Z,51.47
2018-09-24T10:05:23.751Z,51.48
2018-09-24T10:07:49.770Z,51.44
2018-09-24T10:10:15.821Z,51.42
2018-09-24T10:12:41.792Z,51.42
2018-09-24T10:15:07.789Z,51.43
2018-09-24T10:17:33.814Z,51.43
2018-09-24T10:19:59.850Z,51.47
2018-09-24T10:22:25.899Z,51.46
2018-09-24T10:24:51.902Z,51.47
2018-09-24T10:27:18.034Z,51.46
2018-09-24T10:29:44.045Z,51.43
2018-09-24T10:32:10.050Z,51.41
2018-09-24T10:34:36.046Z,51.42
2018-09-24T10:37:02.064Z,51.42
2018-09-24T10:39:28.157Z,51.46
2018-09-24T10:41:54.124Z,51.46
2018-09-24T10:44:20.132Z,51.43
2018-09-24T10:46:46.149Z,51.43
2018-09-24T10:49:12.139Z,51.42
2018-09-24T10:51:38.125Z,51.45
2018-09-24T10:54:04.137Z,51.47
2018-09-24T10:56:30.172Z,51.48
2018-09-24T10:58:56.184Z,51.49
2018-09-24T11:01:22.206Z,51.48
2018-09-24T11:03:48.212Z,51.51
2018-09-24T11:06:14.221Z,51.54
2018-09-24T11:08:40.226Z,51.51
2018-09-24T11:11:06.226Z,51.46
2018-09-24T11:13:32.275Z,51.49
2018-09-24T11:15:58.395Z,51.52
2018-09-24T11:18:24.327Z,51.52
2018-09-24T11:20:50.338Z,51.50
2018-09-24T11:23:16.359Z,51.50
2018-09-24T11:25:42.382Z,51.52
2018-09-24T11:28:08.398Z,51.53
2018-09-24T11:30:34.421Z,51.51
2018-09-24T11:33:00.431Z,51.52
2018-09-24T11:35:26.482Z,51.53
2018-09-24T11:37:52.486Z,51.50
2018-09-24T11:40:18.508Z,51.51
2018-09-24T11:42:44.583Z,51.49
2018-09-24T11:45:10.631Z,51.49
2018-09-24T11:47:36.640Z,51.48
2018-09-24T11:50:02.633Z,51.45
2018-09-24T11:52:28.653Z,51.42
2018-09-24T11:54:54.660Z,51.37
2018-09-24T11:57:20.675Z,51.36
2018-09-24T11:59:46.691Z,51.31
2018-09-24T12:02:12.706Z,51.26
2018-09-24T12:04:38.714Z,51.20
2018-09-24T12:07:04.711Z,51.13
2018-09-24T12:09:30.709Z,51.09
2018-09-24T12:11:56.701Z,50.99
2018-09-24T12:14:22.709Z,50.96
2018-09-24T12:16:48.706Z,50.84
2018-09-24T12:19:14.722Z,50.77
2018-09-24T12:21:40.761Z,50.71
2018-09-24T12:24:06.836Z,50.67
2018-09-24T12:26:32.790Z,50.47
2018-09-24T12:28:58.818Z,50.46
2018-09-24T12:31:24.824Z,50.35
2018-09-24T12:33:50.822Z,50.41
2018-09-24T12:36:16.835Z,50.37
2018-09-24T12:38:42.840Z,50.38
2018-09-24T12:41:08.847Z,50.34
2018-09-24T12:43:34.883Z,50.29
2018-09-24T12:46:00.858Z,50.24
2018-09-24T12:48:26.845Z,50.33
2018-09-24T12:50:52.849Z,50.20
2018-09-24T12:53:18.948Z,50.12
2018-09-24T12:55:44.951Z,49.99
2018-09-24T12:58:10.954Z,49.99
2018-09-24T13:00:36.995Z,50.14
2018-09-24T13:03:03.028Z,49.83
2018-09-24T13:05:29.042Z,49.78
2018-09-24T13:07:55.064Z,49.77
2018-09-24T13:10:21.071Z,49.89
2018-09-24T13:12:47.074Z,49.57
2018-09-24T13:15:13.082Z,49.56
2018-09-24T13:17:39.106Z,49.39
2018-09-24T13:20:05.131Z,49.33
2018-09-24T13:22:31.170Z,49.22
2018-09-24T13:24:57.174Z,49.18
2018-09-24T13:27:23.179Z,49.10
2018-09-24T13:29:49.219Z,49.16
2018-09-24T13:32:15.179Z,49.19
2018-09-24T13:34:41.190Z,48.99
2018-09-24T13:37:07.210Z,48.94
2018-09-24T13:39:33.226Z,48.81
2018-09-24T13:41:59.223Z,48.67
2018-09-24T13:44:25.230Z,48.64
2018-09-24T13:46:51.250Z,48.56
2018-09-24T13:49:17.359Z,48.49
2018-09-24T13:51:43.353Z,48.52
2018-09-24T13:54:09.369Z,48.46
2018-09-24T13:56:35.379Z,48.41
2018-09-24T13:59:01.390Z,48.24
2018-09-24T14:01:27.400Z,48.31
2018-09-24T14:03:53.389Z,48.26
2018-09-24T14:06:19.396Z,48.08
2018-09-24T14:08:45.390Z,47.94
2018-09-24T14:11:11.393Z,47.92
2018-09-24T14:13:37.411Z,48.00
2018-09-24T14:16:03.431Z,47.75
2018-09-24T14:18:29.441Z,47.86
2018-09-24T14:20:55.453Z,47.83
2018-09-24T14:23:21.491Z,47.85
2018-09-24T14:25:47.501Z,47.69
2018-09-24T14:28:13.504Z,47.62
2018-09-24T14:30:39.554Z,47.41
2018-09-24T14:33:05.565Z,47.50
2018-09-24T14:35:31.584Z,47.59
2018-09-24T14:37:57.610Z,47.55
2018-09-24T14:40:23.649Z,46.86
2018-09-24T14:42:49.646Z,47.05
2018-09-24T14:45:15.697Z,46.82
2018-09-24T14:47:41.731Z,46.85
2018-09-24T14:50:07.711Z,46.77
2018-09-24T14:52:33.725Z,47.08
2018-09-24T14:54:59.736Z,46.86
2018-09-24T14:57:25.743Z,46.97
2018-09-24T14:59:51.749Z,46.79
2018-09-24T15:02:17.756Z,46.87
2018-09-24T15:04:43.753Z,46.61
2018-09-24T15:07:09.765Z,46.54
2018-09-24T15:09:35.815Z,46.86
2018-09-24T15:12:01.839Z,46.68
2018-09-24T15:14:27.838Z,46.45
2018-09-24T15:16:53.841Z,46.69
2018-09-24T15:19:19.860Z,47.00
2018-09-24T15:21:45.861Z,46.56
2018-09-24T15:24:11.934Z,46.65
2018-09-24T15:26:37.949Z,46.91
2018-09-24T15:29:03.963Z,46.41
2018-09-24T15:31:29.958Z,46.72
2018-09-24T15:33:55.961Z,46.63
2018-09-24T15:36:21.970Z,46.71
2018-09-24T15:38:47.987Z,46.67
2018-09-24T15:41:14.001Z,46.83
2018-09-24T15:43:40.017Z,46.88
2018-09-24T15:46:06.111Z,46.72
2018-09-24T15:48:32.072Z,46.80
2018-09-24T15:51:02.940Z,46.36
2018-09-24T15:53:27.250Z,46.15
2018-09-24T15:55:53.250Z,46.28
2018-09-24T15:58:19.265Z,46.15
2018-09-24T16:00:45.268Z,45.82
2018-09-24T16:03:11.272Z,45.77
2018-09-24T16:05:37.280Z,45.46
2018-09-24T16:08:03.292Z,45.26
2018-09-24T16:10:29.306Z,45.27
2018-09-24T16:12:55.321Z,44.78
2018-09-24T16:15:21.328Z,45.56
2018-09-24T16:17:47.352Z,45.72
2018-09-24T16:20:13.393Z,45.59
2018-09-24T16:22:39.400Z,45.28
2018-09-24T16:25:05.423Z,45.55
2018-09-24T16:27:31.451Z,45.63
2018-09-24T16:29:57.478Z,45.73
2018-09-24T16:32:23.497Z,45.97
2018-09-24T16:34:49.510Z,46.09
2018-09-24T16:37:15.567Z,46.22
2018-09-24T16:39:42.023Z,46.04
2018-09-24T16:42:10.943Z,46.24
2018-09-24T16:44:38.582Z,46.19
2018-09-24T16:49:40.571Z,46.16
2018-09-24T16:52:09.056Z,46.73
2018-09-24T16:54:35.908Z,47.00
2018-09-24T16:57:17.044Z,46.94
2018-09-24T16:59:46.467Z,46.72
2018-09-24T17:02:12.528Z,46.62
2018-09-24T17:04:41.281Z,46.92
2018-09-24T17:07:07.817Z,46.89
2018-09-24T17:09:34.451Z,46.75
2018-09-24T17:12:03.001Z,46.82
2018-09-24T17:14:29.780Z,46.53
2018-09-24T17:16:56.352Z,46.63
2018-09-24T17:19:22.857Z,47.01
2018-09-24T17:21:49.701Z,46.83
2018-09-24T17:24:16.440Z,46.90
2018-09-24T17:26:43.181Z,46.76
2018-09-24T17:29:09.846Z,46.51
2018-09-24T17:31:36.798Z,46.90
2018-09-24T17:34:03.506Z,47.15
2018-09-24T17:36:31.722Z,47.32
2018-09-24T17:38:58.218Z,47.34
2018-09-24T17:41:24.550Z,47.35
2018-09-24T17:43:51.326Z,47.45
2018-09-24T17:46:18.192Z,47.39
2018-09-24T17:48:47.034Z,47.28
2018-09-24T17:51:13.564Z,47.40
2018-09-24T17:53:40.000Z,47.41
2018-09-24T17:56:06.841Z,47.37
2018-09-24T17:58:33.628Z,47.22
2018-09-24T18:01:00.946Z,47.12
2018-09-24T18:03:28.836Z,47.16
2018-09-24T18:05:54.883Z,47.39
2018-09-24T18:08:20.899Z,47.46
2018-09-24T18:10:47.810Z,47.48
2018-09-24T18:13:14.934Z,47.49
2018-09-24T18:15:40.969Z,47.80
2018-09-24T18:18:07.157Z,47.38
2018-09-24T18:20:33.152Z,47.51
2018-09-24T18:22:59.163Z,47.39
2018-09-24T18:25:25.169Z,47.53
2018-09-24T18:27:51.555Z,47.50
2018-09-24T18:30:17.595Z,47.52
2018-09-24T18:32:43.607Z,47.45
2018-09-24T18:35:09.679Z,47.76
2018-09-24T18:37:35.715Z,47.67
2018-09-24T18:40:01.695Z,47.01
2018-09-24T18:42:27.803Z,47.39
2018-09-24T18:44:53.766Z,47.36
2018-09-24T18:47:19.823Z,47.30
2018-09-24T18:49:51.391Z,47.43
2018-09-24T18:52:13.815Z,47.44
2018-09-24T18:54:39.961Z,47.61
2018-09-24T18:57:05.918Z,47.47
2018-09-24T18:59:31.924Z,47.53
2018-09-24T19:01:58.629Z,47.64
2018-09-24T19:04:27.858Z,47.53
2018-09-24T19:06:54.599Z,47.11
2018-09-24T19:09:21.404Z,47.75
2018-09-24T19:11:48.133Z,47.93
2018-09-24T19:14:14.788Z,47.84
2018-09-24T19:16:40.961Z,47.97
2018-09-24T19:19:06.956Z,47.96
2018-09-24T19:21:33.004Z,48.04
2018-09-24T19:23:59.017Z,48.12
2018-09-24T19:26:25.042Z,48.19
2018-09-24T19:28:51.043Z,48.21
2018-09-24T19:31:19.015Z,48.27
2018-09-24T19:33:45.035Z,48.34
2018-09-24T19:36:11.100Z,48.41
2018-09-24T19:38:37.123Z,48.37
2018-09-24T19:41:03.134Z,48.49
2018-09-24T19:43:29.132Z,48.41
2018-09-24T19:45:55.159Z,48.40
2018-09-24T19:48:21.174Z,48.50
2018-09-24T19:50:47.197Z,48.51
2018-09-24T19:53:13.204Z,48.56
2018-09-24T19:55:39.198Z,48.62
2018-09-24T19:58:05.204Z,48.81
2018-09-24T20:00:31.234Z,48.65
2018-09-24T20:02:57.240Z,48.67
2018-09-24T20:05:23.251Z,48.71
2018-09-24T20:07:49.257Z,48.76
2018-09-24T20:10:15.292Z,48.71
2018-09-24T20:12:41.304Z,48.74
2018-09-24T20:15:07.309Z,48.73
2018-09-24T20:17:33.313Z,48.78
2018-09-24T20:19:59.439Z,48.78
2018-09-24T20:22:25.458Z,48.84
2018-09-24T20:24:51.472Z,48.82
2018-09-24T20:27:17.489Z,48.86
2018-09-24T20:29:43.499Z,48.93
2018-09-24T20:32:09.547Z,48.88
2018-09-24T20:34:35.554Z,48.93
2018-09-24T20:37:01.559Z,48.91
2018-09-24T20:39:27.567Z,49.02
2018-09-24T20:41:53.575Z,48.96
2018-09-24T20:44:19.581Z,48.99
2018-09-24T20:46:45.577Z,49.03
2018-09-24T20:49:11.580Z,49.05
2018-09-24T20:51:37.586Z,49.07
2018-09-24T20:54:03.590Z,49.05
2018-09-24T20:56:29.580Z,49.07
2018-09-24T20:58:55.579Z,49.09
2018-09-24T21:01:21.625Z,49.09
2018-09-24T21:03:47.630Z,49.07
2018-09-24T21:06:13.642Z,49.12
2018-09-24T21:08:39.645Z,49.15
2018-09-24T21:11:05.654Z,49.17
2018-09-24T21:13:31.668Z,49.19
2018-09-24T21:15:57.661Z,49.22
2018-09-24T21:18:23.780Z,49.25
2018-09-24T21:20:49.724Z,49.28
2018-09-24T21:23:15.709Z,49.45
2018-09-24T21:25:41.773Z,49.24
2018-09-24T21:28:07.791Z,49.21
2018-09-24T21:30:33.844Z,49.16
2018-09-24T21:32:59.888Z,49.04
2018-09-24T21:35:25.910Z,49.00
2018-09-24T21:37:51.905Z,48.93
2018-09-24T21:40:17.919Z,48.88
2018-09-24T21:42:43.923Z,48.80
2018-09-24T21:45:09.932Z,48.74
2018-09-24T21:47:35.948Z,48.73
2018-09-24T21:50:01.937Z,48.72
2018-09-24T21:52:27.945Z,48.61
2018-09-24T21:54:53.944Z,48.58
2018-09-24T21:57:19.961Z,48.52
2018-09-24T21:59:45.947Z,48.61
2018-09-24T22:02:11.970Z,48.51
2018-09-24T22:04:37.965Z,48.49
2018-09-24T22:07:03.964Z,48.46
2018-09-24T22:09:29.973Z,48.44
2018-09-24T22:11:55.982Z,48.39
2018-09-24T22:14:21.972Z,48.45
2018-09-24T22:16:48.009Z,48.33
2018-09-24T22:19:14.036Z,48.35
2018-09-24T22:21:40.022Z,48.21
2018-09-24T22:24:06.034Z,48.31
2018-09-24T22:26:32.050Z,48.30
2018-09-24T22:28:58.033Z,48.20
2018-09-24T22:31:24.062Z,48.27
2018-09-24T22:33:50.042Z,48.27
2018-09-24T22:36:16.040Z,48.39
2018-09-24T22:38:42.022Z,47.67
2018-09-24T22:41:08.035Z,47.65
2018-09-24T22:43:34.022Z,47.27
2018-09-24T22:46:00.013Z,47.04
2018-09-24T22:48:25.996Z,47.19
2018-09-24T22:50:51.974Z,46.76
2018-09-24T22:53:17.983Z,47.32
2018-09-24T22:55:44.001Z,47.50
2018-09-24T22:58:10.042Z,47.45
2018-09-24T23:00:36.004Z,47.20
2018-09-24T23:03:02.008Z,47.28
2018-09-24T23:05:28.039Z,47.03
2018-09-24T23:07:54.026Z,47.13
2018-09-24T23:10:20.031Z,47.01
2018-09-24T23:12:46.037Z,46.87
2018-09-24T23:15:12.020Z,46.82
2018-09-24T23:17:38.036Z,46.68
2018-09-24T23:20:04.029Z,46.49
2018-09-24T23:22:30.038Z,46.48
2018-09-24T23:24:56.051Z,46.50
2018-09-24T23:27:22.061Z,46.10
2018-09-24T23:29:48.070Z,45.61
2018-09-24T23:32:14.060Z,45.74
2018-09-24T23:34:40.073Z,45.61
2018-09-24T23:37:06.071Z,45.45
2018-09-24T23:39:32.065Z,45.26
2018-09-24T23:41:58.113Z,45.27
2018-09-24T23:44:24.063Z,45.22
2018-09-24T23:46:50.043Z,45.28
2018-09-24T23:49:16.080Z,45.01
2018-09-24T23:51:42.070Z,44.73
2018-09-24T23:54:08.078Z,44.90
2018-09-24T23:56:34.064Z,44.96
2018-09-24T23:59:00.076Z,44.99
